Time;durP1;ratioP1;P1;durP2;ratioP2;P2;SDS_P1;SDS_P2;PMS_P1;PMS_P2;Temp;Humidity;BMP_temperature;BMP_pressure;BME280_temperature;BME280_humidity;BME280_pressure;Samples;Min_cycle;Max_cycle;Signal;HPM_P1;HPM_P2
2023/10/20 00:01:44;;;;;;;18.48;12.50;;;;;;;;;;6259449;28;20049;-69
2023/10/20 00:04:48;;;;;;;18.15;10.75;;;;;;;;;;6252548;28;20061;-70
2023/10/20 00:07:50;;;;;;;16.17;10.80;;;;;;;;;;6247668;28;20256;-70
2023/10/20 00:10:52;;;;;;;15.43;10.35;;;;;;;;;;6245840;28;20053;-68
2023/10/20 00:13:54;;;;;;;14.52;10.05;;;;;;;;;;6251526;28;20335;-71
2023/10/20 00:16:55;;;;;;;16.10;10.32;;;;;;;;;;6255362;28;20337;-70
2023/10/20 00:19:58;;;;;;;17.77;10.50;;;;;;;;;;6257355;28;20045;-70
2023/10/20 00:23:00;;;;;;;16.13;10.73;;;;;;;;;;6257708;28;20072;-73
2023/10/20 00:26:02;;;;;;;16.08;11.02;;;;;;;;;;6254929;28;20057;-71
2023/10/20 00:29:05;;;;;;;15.27;11.27;;;;;;;;;;6249682;28;20053;-70
2023/10/20 00:32:07;;;;;;;15.85;10.48;;;;;;;;;;6249331;28;20073;-70
2023/10/20 00:35:13;;;;;;;14.88;10.82;;;;;;;;;;6252638;28;20058;-70
2023/10/20 00:38:14;;;;;;;15.05;10.55;;;;;;;;;;6255819;28;20099;-70
2023/10/20 00:41:16;;;;;;;13.65;9.80;;;;;;;;;;6255507;28;20053;-72
2023/10/20 00:44:18;;;;;;;15.05;11.27;;;;;;;;;;6252849;28;20338;-71
2023/10/20 00:47:19;;;;;;;15.15;11.20;;;;;;;;;;6249392;28;20053;-70
2023/10/20 00:50:23;;;;;;;15.60;10.95;;;;;;;;;;6247566;28;20309;-69
2023/10/20 00:53:25;;;;;;;19.80;11.63;;;;;;;;;;6251531;28;20057;-69
2023/10/20 00:56:27;;;;;;;17.63;11.55;;;;;;;;;;6257134;28;20321;-69
2023/10/20 00:59:28;;;;;;;15.48;11.02;;;;;;;;;;6250326;28;20266;-70
2023/10/20 01:02:30;;;;;;;16.73;10.57;;;;;;;;;;6250860;28;20056;-69
2023/10/20 01:05:33;;;;;;;14.30;10.15;;;;;;;;;;6258224;28;20245;-69
2023/10/20 01:08:35;;;;;;;16.33;11.30;;;;;;;;;;6249193;28;20053;-69
2023/10/20 01:11:37;;;;;;;15.45;10.60;;;;;;;;;;6250822;28;20073;-69
2023/10/20 01:14:38;;;;;;;14.60;10.98;;;;;;;;;;6255852;28;20057;-68
2023/10/20 01:17:40;;;;;;;15.95;11.05;;;;;;;;;;6252920;28;20339;-69
2023/10/20 01:20:44;;;;;;;14.57;10.38;;;;;;;;;;6250971;28;20129;-69
2023/10/20 01:23:46;;;;;;;17.63;11.10;;;;;;;;;;6255485;28;20049;-69
2023/10/20 01:26:49;;;;;;;15.07;11.40;;;;;;;;;;6249078;28;20057;-73
2023/10/20 01:29:50;;;;;;;16.80;12.02;;;;;;;;;;6247810;28;20057;-69
2023/10/20 01:32:52;;;;;;;15.65;11.30;;;;;;;;;;6248882;28;20345;-71
2023/10/20 01:35:54;;;;;;;15.70;11.68;;;;;;;;;;6255788;28;20056;-71
2023/10/20 01:38:55;;;;;;;15.75;11.02;;;;;;;;;;6254999;28;20066;-69
2023/10/20 01:41:58;;;;;;;18.65;10.60;;;;;;;;;;6249120;28;20045;-71
2023/10/20 01:45:00;;;;;;;16.67;11.88;;;;;;;;;;6245794;28;20065;-70
2023/10/20 01:48:02;;;;;;;16.20;10.93;;;;;;;;;;6245532;28;20121;-70
2023/10/20 01:51:04;;;;;;;14.63;10.55;;;;;;;;;;6252804;28;20053;-69
2023/10/20 01:54:06;;;;;;;14.68;10.50;;;;;;;;;;6255612;28;20135;-69
2023/10/20 01:57:09;;;;;;;14.68;10.38;;;;;;;;;;6259112;28;20285;-69
2023/10/20 02:00:13;;;;;;;14.48;10.65;;;;;;;;;;6250750;28;20144;-69
2023/10/20 02:03:14;;;;;;;;;;;;;;;;;;6246921;28;20314;-70
2023/10/20 02:06:16;;;;;;;13.45;8.93;;;;;;;;;;6248266;28;19917;-71
2023/10/20 02:09:18;;;;;;;13.63;10.10;;;;;;;;;;6255739;28;20088;-68
2023/10/20 02:12:21;;;;;;;14.63;9.20;;;;;;;;;;6254281;28;20146;-70
2023/10/20 02:15:22;;;;;;;15.00;8.75;;;;;;;;;;6250265;28;20053;-70
2023/10/20 02:18:24;;;;;;;14.63;9.52;;;;;;;;;;6249930;28;20105;-74
2023/10/20 02:21:26;;;;;;;14.02;9.98;;;;;;;;;;6249607;28;20041;-70
2023/10/20 02:24:28;;;;;;;16.20;9.93;;;;;;;;;;6250092;28;20049;-70
2023/10/20 02:27:31;;;;;;;18.20;10.57;;;;;;;;;;6245521;28;20088;-68
2023/10/20 02:30:33;;;;;;;17.05;9.45;;;;;;;;;;6250625;28;20053;-69
2023/10/20 02:33:35;;;;;;;19.55;11.73;;;;;;;;;;6251804;28;20041;-70
2023/10/20 02:36:36;;;;;;;22.52;10.93;;;;;;;;;;6255042;28;20360;-70
2023/10/20 02:39:38;;;;;;;22.83;10.30;;;;;;;;;;6253366;28;20273;-71
2023/10/20 02:42:43;;;;;;;17.80;9.95;;;;;;;;;;6248689;28;20285;-71
2023/10/20 02:45:49;;;;;;;15.52;9.13;;;;;;;;;;6244497;28;20056;-69
2023/10/20 02:48:50;;;;;;;18.40;10.05;;;;;;;;;;6252242;28;20081;-70
2023/10/20 02:51:52;;;;;;;20.27;10.77;;;;;;;;;;6253496;28;20061;-69
2023/10/20 02:54:54;;;;;;;19.92;10.43;;;;;;;;;;6250620;28;20262;-70
2023/10/20 02:57:57;;;;;;;21.20;10.60;;;;;;;;;;6246502;28;20050;-69
2023/10/20 03:00:59;;;;;;;21.42;11.65;;;;;;;;;;6245855;28;20608;-70
2023/10/20 03:04:01;;;;;;;19.10;11.13;;;;;;;;;;6248169;28;20060;-71
2023/10/20 03:07:02;;;;;;;16.13;10.95;;;;;;;;;;6245153;28;20334;-70
2023/10/20 03:10:05;;;;;;;18.60;10.30;;;;;;;;;;6251679;28;20111;-69
2023/10/20 03:13:08;;;;;;;19.60;9.70;;;;;;;;;;6243257;28;20042;-71
2023/10/20 03:16:09;;;;;;;18.80;10.47;;;;;;;;;;6251911;28;20133;-71
2023/10/20 03:19:12;;;;;;;23.20;11.13;;;;;;;;;;6252748;28;20049;-73
2023/10/20 03:22:13;;;;;;;17.50;10.18;;;;;;;;;;6248701;28;20049;-71
2023/10/20 03:25:17;;;;;;;17.23;10.38;;;;;;;;;;6248886;28;20054;-68
2023/10/20 03:28:20;;;;;;;16.25;9.85;;;;;;;;;;6252200;28;20091;-69
2023/10/20 03:31:22;;;;;;;18.55;10.23;;;;;;;;;;6250507;28;20113;-68
2023/10/20 03:34:24;;;;;;;15.38;9.27;;;;;;;;;;6255431;28;20049;-68
2023/10/20 03:37:26;;;;;;;15.05;8.88;;;;;;;;;;6258490;28;20090;-70
2023/10/20 03:40:30;;;;;;;14.50;9.38;;;;;;;;;;6256153;28;20045;-70
2023/10/20 03:43:34;;;;;;;16.23;9.15;;;;;;;;;;6256275;28;20128;-71
2023/10/20 03:46:43;;;;;;;16.08;9.73;;;;;;;;;;6257692;28;20112;-70
2023/10/20 03:49:46;;;;;;;15.77;9.18;;;;;;;;;;6261320;28;20046;-69
2023/10/20 03:52:48;;;;;;;14.32;8.95;;;;;;;;;;6257801;28;20057;-70
2023/10/20 03:55:59;;;;;;;17.15;9.27;;;;;;;;;;6260306;28;20100;-71
2023/10/20 03:59:02;;;;;;;15.60;9.18;;;;;;;;;;6251090;28;20082;-70
2023/10/20 04:02:03;;;;;;;14.05;8.98;;;;;;;;;;6240079;28;20065;-70
2023/10/20 04:05:06;;;;;;;13.68;8.90;;;;;;;;;;6233335;28;20062;-71
2023/10/20 04:08:08;;;;;;;20.48;9.55;;;;;;;;;;6234487;28;20046;-68
2023/10/20 04:11:10;;;;;;;16.48;8.98;;;;;;;;;;6231166;28;20058;-70
2023/10/20 04:14:13;;;;;;;17.15;8.93;;;;;;;;;;6232626;28;20061;-70
2023/10/20 04:17:15;;;;;;;17.02;8.80;;;;;;;;;;6233009;28;20068;-70
2023/10/20 04:20:18;;;;;;;15.10;8.30;;;;;;;;;;6228028;28;20230;-69
2023/10/20 04:23:20;;;;;;;14.27;8.75;;;;;;;;;;6232128;28;20358;-71
2023/10/20 04:26:22;;;;;;;17.02;9.50;;;;;;;;;;6234057;28;20057;-70
2023/10/20 04:29:34;;;;;;;16.20;9.18;;;;;;;;;;6230602;28;20061;-70
2023/10/20 04:53:11;;;;;;;;;;;;;;;;;;6139250;28;20070;-72
2023/10/20 04:56:31;;;;;;;27.38;12.77;;;;;;;;;;6158665;28;20115;-69
2023/10/20 04:59:32;;;;;;;33.42;14.80;;;;;;;;;;6154328;28;20149;-69
2023/10/20 05:02:39;;;;;;;34.60;15.70;;;;;;;;;;6137393;28;20059;-70
2023/10/20 05:05:44;;;;;;;43.00;18.60;;;;;;;;;;6146409;28;20066;-72
2023/10/20 05:08:46;;;;;;;50.60;18.88;;;;;;;;;;6156228;28;20313;-69
2023/10/20 05:11:50;;;;;;;49.08;19.30;;;;;;;;;;6154953;28;20058;-69
2023/10/20 05:14:52;;;;;;;76.50;24.30;;;;;;;;;;6156753;28;20079;-70
2023/10/20 05:17:55;;;;;;;77.05;24.58;;;;;;;;;;6150351;28;20267;-70
2023/10/20 05:20:57;;;;;;;80.78;27.05;;;;;;;;;;6154426;28;20048;-72
2023/10/20 05:23:59;;;;;;;89.97;28.30;;;;;;;;;;6180965;28;20080;-69
2023/10/20 05:27:00;;;;;;;102.60;30.52;;;;;;;;;;6240369;28;20061;-69
2023/10/20 05:30:03;;;;;;;105.63;32.13;;;;;;;;;;6228736;28;20050;-70
2023/10/20 05:33:09;;;;;;;106.65;33.78;;;;;;;;;;6227266;28;20112;-68
2023/10/20 05:36:10;;;;;;;111.85;33.80;;;;;;;;;;6248426;28;20122;-69
2023/10/20 05:39:13;;;;;;;105.97;33.95;;;;;;;;;;6229231;28;20061;-68
2023/10/20 05:42:16;;;;;;;112.78;35.15;;;;;;;;;;6228728;28;20254;-69
2023/10/20 05:45:20;;;;;;;113.38;36.15;;;;;;;;;;6224984;28;20329;-70
2023/10/20 05:48:24;;;;;;;116.85;38.33;;;;;;;;;;6226122;28;20046;-68
2023/10/20 05:51:25;;;;;;;137.80;38.17;;;;;;;;;;6229212;28;20042;-68
2023/10/20 05:54:28;;;;;;;110.88;36.85;;;;;;;;;;6227337;28;20108;-69
2023/10/20 05:57:30;;;;;;;113.78;39.25;;;;;;;;;;6221524;28;20050;-72
2023/10/20 06:00:32;;;;;;;117.80;39.25;;;;;;;;;;6228576;28;20057;-68
2023/10/20 06:03:35;;;;;;;121.13;41.40;;;;;;;;;;6226223;28;20057;-69
2023/10/20 06:06:36;;;;;;;111.53;38.90;;;;;;;;;;6231201;28;20054;-69
2023/10/20 06:09:39;;;;;;;107.30;39.63;;;;;;;;;;6226984;28;20246;-69
2023/10/20 06:12:41;;;;;;;101.22;38.95;;;;;;;;;;6228558;28;20065;-70
2023/10/20 06:15:42;;;;;;;101.85;39.28;;;;;;;;;;6225950;28;20068;-69
2023/10/20 06:18:45;;;;;;;100.82;37.47;;;;;;;;;;6242758;28;20241;-69
2023/10/20 06:21:47;;;;;;;89.13;37.03;;;;;;;;;;6229323;28;20262;-69
2023/10/20 06:24:48;;;;;;;87.50;36.40;;;;;;;;;;6232226;28;20061;-69
2023/10/20 06:27:50;;;;;;;85.55;34.53;;;;;;;;;;6250268;28;20084;-70
2023/10/20 06:30:53;;;;;;;80.07;33.55;;;;;;;;;;6250420;28;20309;-70
2023/10/20 06:34:00;;;;;;;91.55;35.28;;;;;;;;;;6222499;28;20053;-70
2023/10/20 06:37:08;;;;;;;90.72;36.13;;;;;;;;;;6219081;28;20054;-69
2023/10/20 06:40:15;;;;;;;80.80;35.15;;;;;;;;;;6224406;28;20061;-69
2023/10/20 06:43:19;;;;;;;81.03;34.00;;;;;;;;;;6223582;28;20062;-71
2023/10/20 06:46:21;;;;;;;;;;;;;;;;;;6223156;28;20049;-69
2023/10/20 06:49:24;;;;;;;80.05;32.53;;;;;;;;;;6225700;28;20150;-68
2023/10/20 06:52:26;;;;;;;73.25;33.42;;;;;;;;;;6224344;28;20315;-68
2023/10/20 06:55:28;;;;;;;71.38;32.35;;;;;;;;;;6218563;28;20349;-68
2023/10/20 06:58:29;;;;;;;71.43;30.35;;;;;;;;;;6225845;28;20286;-68
2023/10/20 07:01:32;;;;;;;71.15;30.75;;;;;;;;;;6226124;28;20057;-69
2023/10/20 07:04:35;;;;;;;71.60;30.08;;;;;;;;;;6220615;28;20057;-68
2023/10/20 07:07:37;;;;;;;75.65;31.50;;;;;;;;;;6226749;28;20104;-68
2023/10/20 07:10:38;;;;;;;70.82;29.48;;;;;;;;;;6227362;28;20058;-68
2023/10/20 07:13:40;;;;;;;70.22;29.45;;;;;;;;;;6225926;28;20056;-69
2023/10/20 07:16:42;;;;;;;72.80;29.83;;;;;;;;;;6230432;28;20058;-69
2023/10/20 07:19:45;;;;;;;66.28;27.63;;;;;;;;;;6235261;28;20050;-68
2023/10/20 07:22:46;;;;;;;70.27;27.90;;;;;;;;;;6235532;28;20054;-68
2023/10/20 07:25:48;;;;;;;67.30;28.52;;;;;;;;;;6225002;28;20352;-68
2023/10/20 07:28:50;;;;;;;64.28;26.95;;;;;;;;;;6230469;28;20116;-68
2023/10/20 07:31:51;;;;;;;65.10;28.55;;;;;;;;;;6221423;28;20061;-70
2023/10/20 07:34:55;;;;;;;64.13;26.52;;;;;;;;;;6226305;28;21113;-72
2023/10/20 07:37:58;;;;;;;70.53;27.88;;;;;;;;;;6224434;28;20069;-67
2023/10/20 07:41:06;;;;;;;64.60;29.15;;;;;;;;;;6223646;28;20334;-67
2023/10/20 07:44:09;;;;;;;59.28;25.83;;;;;;;;;;6227034;28;20076;-67
2023/10/20 07:47:11;;;;;;;62.80;26.98;;;;;;;;;;6227580;28;20109;-68
2023/10/20 07:50:14;;;;;;;66.75;25.73;;;;;;;;;;6225086;28;20269;-68
2023/10/20 07:53:16;;;;;;;58.50;25.33;;;;;;;;;;6220872;28;20054;-69
2023/10/20 07:56:17;;;;;;;60.38;25.35;;;;;;;;;;6223392;28;20061;-70
2023/10/20 07:59:19;;;;;;;63.60;24.63;;;;;;;;;;6226809;28;20069;-69
2023/10/20 08:02:21;;;;;;;63.63;25.13;;;;;;;;;;6227756;28;20041;-69
2023/10/20 08:05:24;;;;;;;56.88;23.15;;;;;;;;;;6229193;28;20065;-70
2023/10/20 08:08:26;;;;;;;56.60;23.05;;;;;;;;;;6228721;28;20334;-67
2023/10/20 08:11:28;;;;;;;48.30;22.40;;;;;;;;;;6222430;28;20058;-67
2023/10/20 08:14:30;;;;;;;49.63;21.02;;;;;;;;;;6239193;28;20062;-68
2023/10/20 08:17:32;;;;;;;46.67;21.10;;;;;;;;;;6252956;28;20245;-67
2023/10/20 08:20:36;;;;;;;45.53;21.05;;;;;;;;;;6252485;28;20053;-66
2023/10/20 08:23:38;;;;;;;43.60;20.35;;;;;;;;;;6253882;28;20342;-67
2023/10/20 08:26:41;;;;;;;47.03;20.38;;;;;;;;;;6254516;28;20060;-68
2023/10/20 08:29:42;;;;;;;43.05;20.27;;;;;;;;;;6248940;28;20237;-68
2023/10/20 08:32:44;;;;;;;40.85;19.80;;;;;;;;;;6249952;28;20061;-68
2023/10/20 08:35:47;;;;;;;45.25;20.17;;;;;;;;;;6252641;28;20050;-68
2023/10/20 08:38:50;;;;;;;44.50;18.87;;;;;;;;;;6258909;28;20058;-71
2023/10/20 08:41:52;;;;;;;44.63;19.20;;;;;;;;;;6252967;28;20076;-67
2023/10/20 08:44:54;;;;;;;41.38;18.40;;;;;;;;;;6250360;28;20285;-68
2023/10/20 08:47:56;;;;;;;43.20;17.85;;;;;;;;;;6251101;28;20052;-68
2023/10/20 08:50:59;;;;;;;40.60;17.25;;;;;;;;;;6248969;28;20310;-69
2023/10/20 08:54:02;;;;;;;50.83;18.13;;;;;;;;;;6249223;28;20400;-70
2023/10/20 08:57:06;;;;;;;41.17;17.73;;;;;;;;;;6251313;28;20048;-68
2023/10/20 09:00:13;;;;;;;;;;;;;;;;;;6255133;28;20061;-68
2023/10/20 09:03:16;;;;;;;41.38;18.48;;;;;;;;;;6227712;28;19992;-70
2023/10/20 09:06:23;;;;;;;48.97;18.45;;;;;;;;;;6241015;28;20045;-70
2023/10/20 09:09:24;;;;;;;38.95;16.80;;;;;;;;;;6248564;28;20224;-68
2023/10/20 09:12:29;;;;;;;38.90;17.30;;;;;;;;;;6229568;28;20358;-69
2023/10/20 09:15:32;;;;;;;44.78;17.05;;;;;;;;;;6234025;28;20117;-69
2023/10/20 09:18:42;;;;;;;38.67;17.58;;;;;;;;;;6229314;28;20051;-67
2023/10/20 09:21:46;;;;;;;46.08;17.05;;;;;;;;;;6220872;28;20049;-68
2023/10/20 09:24:51;;;;;;;;;;;;;;;;;;6226047;28;20326;-68
2023/10/20 09:27:55;;;;;;;39.17;16.98;;;;;;;;;;6244983;28;20035;-67
2023/10/20 09:30:56;;;;;;;;;;;;;;;;;;6225639;28;20346;-68
2023/10/20 09:33:58;;;;;;;38.95;16.63;;;;;;;;;;6224762;28;19925;-67
2023/10/20 09:37:02;;;;;;;42.90;17.48;;;;;;;;;;6231184;28;20058;-70
2023/10/20 09:40:07;;;;;;;30.50;16.48;;;;;;;;;;6231926;28;20052;-69
2023/10/20 09:43:18;;;;;;;32.38;15.77;;;;;;;;;;6227286;28;20298;-69
2023/10/20 09:46:32;;;;;;;29.88;16.10;;;;;;;;;;6225165;28;20058;-70
2023/10/20 09:49:36;;;;;;;;;;;;;;;;;;6224767;28;20216;-70
2023/10/20 09:52:40;;;;;;;33.50;15.20;;;;;;;;;;6226588;28;19953;-67
2023/10/20 09:55:43;;;;;;;38.78;16.63;;;;;;;;;;6234253;28;20082;-69
2023/10/20 09:58:46;;;;;;;39.83;16.98;;;;;;;;;;6226301;28;20063;-68
2023/10/20 10:01:47;;;;;;;35.53;17.13;;;;;;;;;;6226069;28;20124;-69
2023/10/20 10:04:49;;;;;;;36.85;15.75;;;;;;;;;;6226185;28;20050;-69
2023/10/20 10:08:06;;;;;;;31.55;16.02;;;;;;;;;;6225689;28;20116;-69
2023/10/20 10:11:21;;;;;;;37.97;15.88;;;;;;;;;;6225075;28;20050;-69
2023/10/20 10:14:25;;;;;;;39.80;15.75;;;;;;;;;;6224523;28;20118;-69
2023/10/20 10:17:27;;;;;;;53.33;17.48;;;;;;;;;;6224242;28;20057;-69
2023/10/20 10:20:29;;;;;;;42.33;16.55;;;;;;;;;;6225329;28;20060;-66
2023/10/20 10:23:33;;;;;;;42.58;16.30;;;;;;;;;;6227427;28;20076;-68
2023/10/20 10:26:35;;;;;;;28.42;15.65;;;;;;;;;;6224043;28;20049;-68
2023/10/20 10:29:53;;;;;;;36.30;16.48;;;;;;;;;;6224992;28;20088;-68
2023/10/20 10:32:55;;;;;;;39.83;17.48;;;;;;;;;;6223836;28;20053;-67
2023/10/20 10:36:04;;;;;;;38.25;16.08;;;;;;;;;;6237568;28;20053;-67
2023/10/20 10:39:07;;;;;;;34.88;16.10;;;;;;;;;;6230625;28;20072;-67
2023/10/20 10:42:09;;;;;;;35.90;16.87;;;;;;;;;;6224549;28;20080;-67
2023/10/20 10:45:21;;;;;;;39.15;16.60;;;;;;;;;;6224318;28;20447;-67
2023/10/20 10:48:26;;;;;;;48.13;17.67;;;;;;;;;;6224992;28;20056;-67
2023/10/20 10:51:32;;;;;;;39.08;17.08;;;;;;;;;;6228492;28;20066;-67
2023/10/20 10:54:35;;;;;;;41.67;17.90;;;;;;;;;;6228334;28;20125;-67
2023/10/20 10:57:39;;;;;;;43.88;16.73;;;;;;;;;;6224120;28;20066;-70
2023/10/20 11:00:43;;;;;;;;;;;;;;;;;;6226879;28;20794;-67
2023/10/20 11:03:45;;;;;;;40.38;16.50;;;;;;;;;;6244851;28;19923;-71
2023/10/20 11:06:47;;;;;;;45.22;17.48;;;;;;;;;;6252937;28;20064;-67
2023/10/20 11:09:51;;;;;;;36.28;17.02;;;;;;;;;;6254899;28;20049;-68
2023/10/20 11:12:52;;;;;;;;;;;;;;;;;;6227452;28;20246;-67
2023/10/20 11:15:55;;;;;;;35.03;15.63;;;;;;;;;;6224066;28;19925;-67
2023/10/20 11:18:56;;;;;;;31.58;15.48;;;;;;;;;;6240281;28;20053;-68
2023/10/20 11:21:58;;;;;;;30.92;14.82;;;;;;;;;;6258267;28;20103;-67
2023/10/20 11:25:02;;;;;;;33.60;14.88;;;;;;;;;;6237867;28;20113;-67
2023/10/20 11:28:04;;;;;;;42.08;15.18;;;;;;;;;;6243276;28;20064;-69
2023/10/20 11:31:07;;;;;;;36.80;15.45;;;;;;;;;;6242882;28;20057;-67
2023/10/20 11:34:10;;;;;;;27.58;13.95;;;;;;;;;;6240782;28;20053;-69
2023/10/20 11:37:14;;;;;;;31.85;15.25;;;;;;;;;;6236512;28;20058;-69
2023/10/20 11:40:17;;;;;;;32.50;15.25;;;;;;;;;;6231765;28;20061;-68
2023/10/20 11:43:19;;;;;;;37.00;14.43;;;;;;;;;;6240033;28;20050;-69
2023/10/20 11:46:21;;;;;;;29.77;14.43;;;;;;;;;;6230169;28;20298;-69
2023/10/20 11:49:25;;;;;;;28.73;13.73;;;;;;;;;;6252077;28;20057;-69
2023/10/20 11:52:27;;;;;;;36.10;14.05;;;;;;;;;;6248878;28;20084;-68
2023/10/20 11:55:30;;;;;;;33.22;15.10;;;;;;;;;;6240434;28;20045;-68
2023/10/20 11:58:33;;;;;;;35.42;15.38;;;;;;;;;;6233448;28;20050;-69
2023/10/20 12:01:35;;;;;;;33.15;14.30;;;;;;;;;;6239930;28;20225;-70
2023/10/20 12:04:37;;;;;;;31.58;15.05;;;;;;;;;;6243725;28;20429;-68
2023/10/20 12:07:40;;;;;;;29.02;15.05;;;;;;;;;;6255360;28;20113;-69
2023/10/20 12:10:43;;;;;;;39.97;15.20;;;;;;;;;;6248650;28;20237;-71
2023/10/20 12:13:47;;;;;;;37.22;16.08;;;;;;;;;;6256646;28;20320;-68
2023/10/20 12:16:49;;;;;;;40.03;15.30;;;;;;;;;;6268567;28;20087;-68
2023/10/20 12:19:51;;;;;;;34.17;15.55;;;;;;;;;;6247233;28;20058;-69
2023/10/20 12:22:55;;;;;;;37.28;14.65;;;;;;;;;;6251541;28;20045;-68
2023/10/20 12:25:58;;;;;;;37.47;15.43;;;;;;;;;;6256042;28;20066;-69
2023/10/20 12:28:59;;;;;;;35.07;15.03;;;;;;;;;;6252922;28;20049;-68
2023/10/20 12:32:03;;;;;;;33.28;15.18;;;;;;;;;;6248497;28;20111;-68
2023/10/20 12:35:05;;;;;;;32.47;16.02;;;;;;;;;;6250401;28;20042;-68
2023/10/20 12:38:07;;;;;;;37.00;16.55;;;;;;;;;;6249960;28;20057;-68
2023/10/20 12:41:11;;;;;;;36.80;15.57;;;;;;;;;;6249611;28;20041;-68
2023/10/20 12:44:13;;;;;;;30.00;14.88;;;;;;;;;;6260298;28;20069;-68
2023/10/20 12:47:16;;;;;;;34.25;14.68;;;;;;;;;;6259677;28;20092;-71
2023/10/20 12:50:19;;;;;;;35.42;14.23;;;;;;;;;;6260573;28;20068;-69
2023/10/20 12:53:21;;;;;;;29.47;14.63;;;;;;;;;;6258260;28;20080;-70
2023/10/20 12:56:24;;;;;;;29.60;14.45;;;;;;;;;;6249843;28;20053;-69
2023/10/20 12:59:26;;;;;;;28.57;13.80;;;;;;;;;;6249301;28;20124;-69
2023/10/20 13:02:28;;;;;;;33.45;14.43;;;;;;;;;;6257873;28;20477;-68
2023/10/20 13:05:30;;;;;;;30.42;14.65;;;;;;;;;;6253944;28;20061;-68
2023/10/20 13:08:31;;;;;;;30.45;13.43;;;;;;;;;;6260479;28;20069;-69
2023/10/20 13:11:34;;;;;;;30.60;14.40;;;;;;;;;;6255021;28;20057;-69
2023/10/20 13:14:36;;;;;;;32.28;14.45;;;;;;;;;;6257328;28;20062;-69
2023/10/20 13:17:38;;;;;;;30.60;14.05;;;;;;;;;;6249457;28;20054;-69
2023/10/20 13:20:40;;;;;;;26.38;14.15;;;;;;;;;;6250851;28;20249;-69
2023/10/20 13:23:42;;;;;;;33.75;13.93;;;;;;;;;;6264125;28;20052;-69
2023/10/20 13:26:45;;;;;;;29.15;13.07;;;;;;;;;;6254813;28;20076;-69
2023/10/20 13:29:46;;;;;;;23.30;12.53;;;;;;;;;;6256554;28;20345;-69
2023/10/20 13:32:48;;;;;;;30.58;13.10;;;;;;;;;;6251388;28;20687;-68
2023/10/20 13:35:50;;;;;;;24.33;12.52;;;;;;;;;;6252061;28;20065;-69
2023/10/20 13:38:51;;;;;;;35.13;13.60;;;;;;;;;;6245287;28;20083;-68
2023/10/20 13:41:55;;;;;;;22.08;10.25;;;;;;;;;;6250784;28;20151;-68
2023/10/20 13:44:57;;;;;;;;;;;;;;;;;;6247945;28;20117;-68
2023/10/20 13:47:59;;;;;;;22.10;10.40;;;;;;;;;;6253090;28;20197;-69
2023/10/20 13:51:00;;;;;;;19.10;10.15;;;;;;;;;;6248794;28;20053;-68
2023/10/20 13:54:02;;;;;;;21.80;10.43;;;;;;;;;;6252185;28;20048;-69
2023/10/20 13:57:05;;;;;;;21.27;10.10;;;;;;;;;;6245407;28;20052;-70
2023/10/20 14:00:12;;;;;;;17.15;8.40;;;;;;;;;;6252867;28;20421;-68
2023/10/20 14:03:14;;;;;;;13.25;7.65;;;;;;;;;;6249806;28;20148;-68
2023/10/20 14:06:16;;;;;;;16.33;8.55;;;;;;;;;;6249969;28;20103;-69
2023/10/20 14:09:18;;;;;;;17.10;7.78;;;;;;;;;;6252359;28;20045;-68
2023/10/20 14:12:21;;;;;;;20.92;8.32;;;;;;;;;;6249660;28;20061;-69
2023/10/20 14:15:23;;;;;;;16.08;7.05;;;;;;;;;;6227292;28;20053;-70
2023/10/20 14:18:25;;;;;;;17.23;6.43;;;;;;;;;;6225659;28;20100;-69
2023/10/20 14:21:27;;;;;;;14.90;7.28;;;;;;;;;;6227453;28;20242;-69
2023/10/20 14:24:28;;;;;;;14.13;6.93;;;;;;;;;;6230456;28;20231;-69
2023/10/20 14:27:33;;;;;;;13.20;5.25;;;;;;;;;;6228346;28;20116;-69
2023/10/20 14:30:35;;;;;;;14.07;4.97;;;;;;;;;;6227201;28;20070;-70
2023/10/20 14:33:37;;;;;;;11.60;5.18;;;;;;;;;;6220515;28;20227;-69
2023/10/20 14:36:39;;;;;;;14.23;5.75;;;;;;;;;;6222455;28;20049;-68
2023/10/20 14:39:41;;;;;;;14.40;7.03;;;;;;;;;;6227949;28;20053;-69
2023/10/20 14:42:44;;;;;;;11.63;5.55;;;;;;;;;;6229435;28;20062;-69
2023/10/20 14:45:56;;;;;;;13.68;6.10;;;;;;;;;;6232457;28;20053;-68
2023/10/20 14:48:57;;;;;;;15.52;6.00;;;;;;;;;;6230822;28;20101;-68
2023/10/20 14:52:00;;;;;;;17.33;6.93;;;;;;;;;;6223248;28;20110;-67
2023/10/20 14:55:03;;;;;;;11.07;6.20;;;;;;;;;;6223034;28;21915;-69
2023/10/20 14:58:06;;;;;;;16.52;6.70;;;;;;;;;;6228283;28;20046;-70
2023/10/20 15:01:08;;;;;;;17.27;6.70;;;;;;;;;;6225106;28;20061;-68
2023/10/20 15:04:12;;;;;;;16.10;5.93;;;;;;;;;;6219983;28;20131;-70
2023/10/20 15:07:13;;;;;;;13.75;5.95;;;;;;;;;;6235208;28;20080;-69
2023/10/20 15:10:15;;;;;;;13.77;5.60;;;;;;;;;;6226845;28;20057;-70
2023/10/20 15:13:19;;;;;;;14.27;5.78;;;;;;;;;;6223585;28;20053;-72
2023/10/20 15:16:21;;;;;;;14.02;5.75;;;;;;;;;;6225278;28;20072;-68
2023/10/20 15:19:23;;;;;;;9.98;5.35;;;;;;;;;;6230111;28;20057;-70
2023/10/20 15:22:24;;;;;;;11.77;5.53;;;;;;;;;;6226806;28;20235;-73
2023/10/20 15:25:26;;;;;;;10.57;5.95;;;;;;;;;;6229277;28;20048;-72
2023/10/20 15:28:29;;;;;;;11.43;6.10;;;;;;;;;;6227098;28;20326;-70
2023/10/20 15:31:31;;;;;;;13.40;6.00;;;;;;;;;;6218685;28;20053;-69
2023/10/20 15:34:32;;;;;;;15.30;5.80;;;;;;;;;;6226626;28;20242;-68
2023/10/20 15:37:35;;;;;;;12.40;5.15;;;;;;;;;;6227382;28;20065;-71
2023/10/20 15:40:37;;;;;;;14.38;5.55;;;;;;;;;;6225742;28;20250;-69
2023/10/20 15:43:40;;;;;;;11.80;4.88;;;;;;;;;;6225044;28;20065;-68
2023/10/20 15:46:42;;;;;;;10.35;3.55;;;;;;;;;;6225841;28;20129;-68
2023/10/20 15:49:44;;;;;;;5.83;1.90;;;;;;;;;;6221748;28;20100;-68
2023/10/20 15:52:46;;;;;;;5.40;1.40;;;;;;;;;;6219969;28;20058;-68
2023/10/20 15:55:47;;;;;;;6.60;1.48;;;;;;;;;;6225960;28;20073;-67
2023/10/20 15:58:50;;;;;;;5.22;1.20;;;;;;;;;;6224431;28;20057;-68
2023/10/20 16:01:52;;;;;;;1.67;0.70;;;;;;;;;;6226571;28;20049;-67
2023/10/20 16:04:54;;;;;;;3.05;0.95;;;;;;;;;;6226984;28;20591;-68
2023/10/20 16:07:56;;;;;;;2.65;1.10;;;;;;;;;;6225279;28;20058;-69
2023/10/20 16:10:57;;;;;;;2.78;0.75;;;;;;;;;;6223347;28;20231;-68
2023/10/20 16:14:00;;;;;;;2.85;0.65;;;;;;;;;;6225382;28;20050;-67
2023/10/20 16:17:02;;;;;;;4.63;0.98;;;;;;;;;;6221968;28;20077;-67
2023/10/20 16:20:04;;;;;;;3.42;1.02;;;;;;;;;;6229160;28;20041;-67
2023/10/20 16:23:07;;;;;;;2.45;0.85;;;;;;;;;;6223889;28;20135;-67
2023/10/20 16:26:09;;;;;;;7.40;1.38;;;;;;;;;;6223091;28;20049;-69
2023/10/20 16:29:12;;;;;;;5.88;1.70;;;;;;;;;;6219811;28;20050;-74
2023/10/20 16:32:13;;;;;;;9.07;2.13;;;;;;;;;;6228406;28;20128;-70
2023/10/20 16:35:15;;;;;;;2.97;1.00;;;;;;;;;;6226394;28;20325;-70
2023/10/20 16:38:17;;;;;;;1.65;0.77;;;;;;;;;;6239256;28;20100;-68
2023/10/20 16:41:18;;;;;;;3.35;1.20;;;;;;;;;;6226293;28;20133;-69
2023/10/20 16:44:21;;;;;;;2.97;1.00;;;;;;;;;;6226293;28;20357;-68
2023/10/20 16:47:23;;;;;;;3.80;1.30;;;;;;;;;;6227617;28;20049;-68
2023/10/20 16:50:25;;;;;;;7.47;2.25;;;;;;;;;;6227424;28;20062;-69
2023/10/20 16:53:28;;;;;;;6.88;1.80;;;;;;;;;;6230009;28;20109;-67
2023/10/20 16:56:30;;;;;;;3.58;1.38;;;;;;;;;;6231268;28;20112;-68
2023/10/20 16:59:33;;;;;;;3.65;1.52;;;;;;;;;;6227355;28;20053;-69
2023/10/20 17:02:35;;;;;;;7.35;1.48;;;;;;;;;;6231643;28;20061;-69
2023/10/20 17:05:37;;;;;;;4.55;1.40;;;;;;;;;;6227353;28;20362;-67
2023/10/20 17:08:39;;;;;;;3.80;1.83;;;;;;;;;;6229935;28;20100;-68
2023/10/20 17:11:41;;;;;;;3.22;1.67;;;;;;;;;;6225871;28;20477;-68
2023/10/20 17:14:44;;;;;;;2.78;1.15;;;;;;;;;;6229308;28;20080;-69
2023/10/20 17:17:45;;;;;;;4.27;1.80;;;;;;;;;;6232203;28;20399;-68
2023/10/20 17:20:48;;;;;;;4.97;1.00;;;;;;;;;;6228589;28;20460;-68
2023/10/20 17:23:49;;;;;;;2.50;0.70;;;;;;;;;;6229405;28;20060;-68
2023/10/20 17:26:51;;;;;;;2.28;0.93;;;;;;;;;;6226489;28;20053;-68
2023/10/20 17:29:54;;;;;;;4.40;1.48;;;;;;;;;;6228059;28;20049;-68
2023/10/20 17:32:56;;;;;;;3.53;1.30;;;;;;;;;;6228151;28;20061;-69
2023/10/20 17:36:03;;;;;;;6.03;1.77;;;;;;;;;;6225889;28;20110;-68
2023/10/20 17:39:06;;;;;;;5.13;2.30;;;;;;;;;;6229164;28;20046;-68
2023/10/20 17:42:08;;;;;;;5.32;2.40;;;;;;;;;;6223521;28;20050;-68
2023/10/20 17:45:11;;;;;;;5.95;2.35;;;;;;;;;;6220445;28;20057;-68
2023/10/20 17:48:13;;;;;;;6.70;2.80;;;;;;;;;;6221196;28;20076;-67
2023/10/20 17:51:16;;;;;;;7.32;3.00;;;;;;;;;;6225689;28;20050;-67
2023/10/20 17:54:18;;;;;;;6.53;3.05;;;;;;;;;;6229362;28;20095;-68
2023/10/20 17:57:19;;;;;;;6.53;3.22;;;;;;;;;;6226815;28;20226;-68
2023/10/20 18:00:23;;;;;;;5.97;3.00;;;;;;;;;;6229030;28;20357;-68
2023/10/20 18:03:25;;;;;;;6.53;3.33;;;;;;;;;;6226577;28;20050;-69
2023/10/20 18:06:27;;;;;;;8.57;3.60;;;;;;;;;;6226846;28;20351;-67
2023/10/20 18:09:28;;;;;;;6.90;3.38;;;;;;;;;;6229987;28;20053;-69
2023/10/20 18:12:30;;;;;;;11.50;3.42;;;;;;;;;;6235961;28;20335;-68
2023/10/20 18:15:37;;;;;;;11.18;4.80;;;;;;;;;;6228775;28;20393;-68